createdAt,value
2017-08-28T00:01:34.414Z,14.26
2017-08-28T00:04:02.913Z,14.24
2017-08-28T00:06:31.393Z,14.21
2017-08-28T00:08:59.878Z,14.28
2017-08-28T00:11:28.362Z,14.18
2017-08-28T00:13:56.827Z,14.23
2017-08-28T00:16:25.317Z,14.24
2017-08-28T00:18:53.787Z,14.29
2017-08-28T00:21:22.287Z,14.32
2017-08-28T00:23:50.755Z,14.26
2017-08-28T00:26:19.245Z,14.21
2017-08-28T00:28:47.718Z,14.19
2017-08-28T00:31:16.216Z,14.20
2017-08-28T00:33:44.645Z,14.19
2017-08-28T00:36:13.083Z,14.15
2017-08-28T00:38:41.543Z,14.07
2017-08-28T00:41:10.024Z,14.04
2017-08-28T00:43:38.517Z,14.06
2017-08-28T00:46:07.000Z,14.00
2017-08-28T00:48:35.430Z,14.04
2017-08-28T00:51:03.969Z,14.04
2017-08-28T00:53:32.396Z,14.02
2017-08-28T00:56:00.915Z,14.03
2017-08-28T00:58:29.408Z,13.98
2017-08-28T01:00:57.853Z,13.96
2017-08-28T01:03:26.309Z,13.95
2017-08-28T01:05:54.726Z,13.94
2017-08-28T01:08:24.053Z,13.95
2017-08-28T01:10:52.541Z,13.91
2017-08-28T01:13:21.005Z,13.91
2017-08-28T01:15:49.435Z,13.89
2017-08-28T01:18:17.898Z,13.88
2017-08-28T01:20:46.372Z,13.88
2017-08-28T01:23:14.835Z,13.82
2017-08-28T01:25:43.320Z,13.74
2017-08-28T01:28:11.763Z,13.74
2017-08-28T01:30:40.207Z,13.67
2017-08-28T01:33:08.655Z,13.68
2017-08-28T01:35:37.145Z,13.70
2017-08-28T01:38:05.606Z,13.69
2017-08-28T01:40:34.118Z,13.67
2017-08-28T01:43:02.594Z,13.62
2017-08-28T01:45:31.080Z,13.55
2017-08-28T01:47:59.555Z,13.58
2017-08-28T01:50:28.031Z,13.58
2017-08-28T01:52:56.470Z,13.54
2017-08-28T01:55:24.929Z,13.43
2017-08-28T01:57:53.391Z,13.51
2017-08-28T02:00:21.860Z,13.49
2017-08-28T02:02:50.355Z,13.45
2017-08-28T02:05:18.827Z,13.44
2017-08-28T02:07:47.319Z,13.47
2017-08-28T02:10:15.801Z,13.45
2017-08-28T02:12:44.245Z,13.42
2017-08-28T02:15:12.766Z,13.38
2017-08-28T02:17:41.231Z,13.39
2017-08-28T02:20:09.725Z,13.35
2017-08-28T02:22:38.151Z,13.35
2017-08-28T02:25:06.689Z,13.36
2017-08-28T02:27:35.164Z,13.39
2017-08-28T02:30:03.626Z,13.38
2017-08-28T02:32:32.056Z,13.36
2017-08-28T02:35:00.518Z,13.38
2017-08-28T02:37:28.987Z,13.37
2017-08-28T02:39:57.481Z,13.32
2017-08-28T02:42:25.912Z,13.31
2017-08-28T02:44:54.436Z,13.34
2017-08-28T02:47:22.920Z,13.36
2017-08-28T02:49:51.405Z,13.37
2017-08-28T02:52:19.843Z,13.31
2017-08-28T02:54:48.378Z,13.31
2017-08-28T02:57:16.861Z,13.29
2017-08-28T02:59:45.327Z,13.28
2017-08-28T03:02:13.820Z,13.25
2017-08-28T03:04:42.288Z,13.21
2017-08-28T03:07:10.776Z,13.13
2017-08-28T03:09:39.204Z,13.19
2017-08-28T03:12:07.737Z,13.19
2017-08-28T03:14:36.225Z,13.16
2017-08-28T03:17:04.700Z,13.21
2017-08-28T03:19:33.193Z,13.14
2017-08-28T03:22:01.653Z,13.14
2017-08-28T03:24:30.152Z,13.12
2017-08-28T03:26:58.591Z,13.07
2017-08-28T03:29:27.126Z,13.07
2017-08-28T03:31:55.692Z,13.07
2017-08-28T03:34:24.182Z,13.05
2017-08-28T03:36:52.628Z,13.10
2017-08-28T03:39:21.056Z,13.09
2017-08-28T03:41:49.508Z,13.07
2017-08-28T03:44:18.479Z,13.10
2017-08-28T03:46:46.936Z,13.10
2017-08-28T03:49:15.364Z,13.11
2017-08-28T03:51:43.827Z,13.08
2017-08-28T03:54:12.261Z,13.09
2017-08-28T03:56:40.713Z,13.05
2017-08-28T03:59:09.144Z,13.06
2017-08-28T04:01:37.588Z,13.08
2017-08-28T04:04:06.037Z,13.05
2017-08-28T04:06:34.506Z,13.07
2017-08-28T04:09:03.710Z,13.03
2017-08-28T04:11:32.173Z,13.02
2017-08-28T04:14:00.713Z,13.05
2017-08-28T04:16:29.287Z,13.03
2017-08-28T04:18:57.782Z,13.04
2017-08-28T04:21:26.234Z,13.08
2017-08-28T04:23:54.698Z,13.06
2017-08-28T04:26:24.049Z,13.08
2017-08-28T04:28:52.514Z,13.08
2017-08-28T04:31:20.949Z,13.13
2017-08-28T04:33:49.405Z,13.15
2017-08-28T04:36:17.823Z,13.22
2017-08-28T04:38:46.343Z,13.29
2017-08-28T04:41:14.781Z,13.34
2017-08-28T04:43:43.307Z,13.38
2017-08-28T04:46:11.792Z,13.46
2017-08-28T04:48:40.276Z,13.47
2017-08-28T04:51:08.763Z,13.56
2017-08-28T04:53:37.235Z,13.55
2017-08-28T04:56:05.673Z,13.60
2017-08-28T04:58:34.200Z,13.67
2017-08-28T05:01:02.693Z,13.76
2017-08-28T05:03:31.169Z,13.84
2017-08-28T05:05:59.629Z,13.88
2017-08-28T05:08:28.139Z,13.96
2017-08-28T05:10:56.605Z,14.05
2017-08-28T05:13:25.102Z,14.14
2017-08-28T05:15:53.586Z,14.21
2017-08-28T05:18:22.066Z,14.21
2017-08-28T05:20:50.553Z,14.30
2017-08-28T05:23:19.034Z,14.41
2017-08-28T05:25:47.503Z,14.47
2017-08-28T05:28:15.984Z,14.52
2017-08-28T05:30:44.480Z,14.57
2017-08-28T05:33:12.916Z,14.64
2017-08-28T05:35:41.373Z,14.71
2017-08-28T05:38:09.908Z,14.77
2017-08-28T05:40:38.361Z,14.85
2017-08-28T05:43:06.876Z,14.88
2017-08-28T05:45:35.355Z,15.01
2017-08-28T05:48:03.845Z,15.08
2017-08-28T05:50:32.328Z,15.17
2017-08-28T05:53:00.815Z,15.23
2017-08-28T05:55:29.290Z,15.30
2017-08-28T05:57:57.716Z,15.40
2017-08-28T06:00:26.148Z,15.50
2017-08-28T06:02:54.600Z,15.44
2017-08-28T06:05:23.122Z,15.62
2017-08-28T06:07:51.610Z,15.81
2017-08-28T06:10:20.085Z,15.94
2017-08-28T06:12:48.555Z,15.94
2017-08-28T06:15:17.031Z,16.04
2017-08-28T06:17:45.484Z,16.16
2017-08-28T06:20:13.921Z,16.23
2017-08-28T06:22:42.499Z,16.20
2017-08-28T06:25:10.924Z,16.15
2017-08-28T06:27:39.384Z,16.35
2017-08-28T06:30:07.828Z,16.40
2017-08-28T06:32:36.302Z,16.53
2017-08-28T06:35:04.794Z,16.54
2017-08-28T06:37:33.267Z,16.64
2017-08-28T06:40:01.689Z,16.75
2017-08-28T06:42:30.251Z,16.87
2017-08-28T06:44:58.715Z,16.84
2017-08-28T06:47:27.173Z,16.97
2017-08-28T06:49:56.367Z,17.08
2017-08-28T06:52:24.875Z,17.07
2017-08-28T06:54:53.305Z,17.26
2017-08-28T06:57:21.862Z,17.21
2017-08-28T06:59:50.301Z,17.40
2017-08-28T07:02:18.748Z,17.32
2017-08-28T07:04:47.297Z,17.47
2017-08-28T07:07:15.788Z,17.43
2017-08-28T07:09:44.234Z,17.55
2017-08-28T07:12:12.735Z,17.77
2017-08-28T07:14:41.211Z,18.06
2017-08-28T07:17:09.667Z,18.08
2017-08-28T07:19:38.105Z,18.22
2017-08-28T07:22:06.664Z,18.40
2017-08-28T07:24:35.096Z,18.36
2017-08-28T07:27:03.532Z,18.54
2017-08-28T07:29:31.979Z,18.57
2017-08-28T07:32:00.493Z,18.79
2017-08-28T07:34:28.948Z,18.78
2017-08-28T07:36:57.473Z,18.97
2017-08-28T07:39:25.945Z,19.19
2017-08-28T07:41:54.413Z,19.14
2017-08-28T07:44:22.910Z,19.09
2017-08-28T07:46:51.394Z,18.87
2017-08-28T07:49:19.868Z,18.95
2017-08-28T07:51:48.344Z,19.16
2017-08-28T07:54:16.839Z,19.10
2017-08-28T07:56:45.272Z,19.43
2017-08-28T07:59:13.792Z,19.75
2017-08-28T08:01:42.229Z,19.84
2017-08-28T08:04:10.751Z,19.57
2017-08-28T08:06:39.188Z,19.60
2017-08-28T08:09:07.645Z,19.51
2017-08-28T08:11:36.084Z,19.67
2017-08-28T08:14:04.591Z,19.67
2017-08-28T08:16:33.067Z,20.04
2017-08-28T08:19:01.554Z,20.23
2017-08-28T08:21:30.038Z,20.44
2017-08-28T08:23:58.582Z,20.31
2017-08-28T08:26:27.106Z,20.06
2017-08-28T08:28:55.576Z,20.24
2017-08-28T08:31:24.059Z,20.33
2017-08-28T08:33:58.187Z,20.45
2017-08-28T08:36:26.663Z,20.45
2017-08-28T08:38:55.141Z,20.32
2017-08-28T08:41:23.579Z,20.22
2017-08-28T08:43:52.010Z,20.19
2017-08-28T08:46:20.476Z,20.13
2017-08-28T08:48:48.962Z,19.94
2017-08-28T08:51:17.403Z,20.04
2017-08-28T08:53:45.847Z,20.46
2017-08-28T08:56:14.285Z,20.58
2017-08-28T08:58:42.784Z,20.99
2017-08-28T09:01:11.288Z,21.13
2017-08-28T09:03:39.728Z,21.30
2017-08-28T09:06:08.189Z,21.48
2017-08-28T09:08:36.725Z,21.51
2017-08-28T09:11:05.201Z,21.39
2017-08-28T09:13:33.676Z,21.25
2017-08-28T09:16:02.131Z,20.78
2017-08-28T09:18:30.571Z,20.54
2017-08-28T09:20:59.036Z,20.38
2017-08-28T09:23:27.604Z,20.83
2017-08-28T09:25:56.092Z,21.09
2017-08-28T09:28:24.584Z,21.36
2017-08-28T09:30:53.052Z,21.47
2017-08-28T09:33:21.499Z,20.94
2017-08-28T09:35:50.006Z,21.19
2017-08-28T09:38:18.462Z,21.53
2017-08-28T09:40:46.897Z,21.50
2017-08-28T09:43:15.359Z,21.87
2017-08-28T09:45:43.850Z,21.98
2017-08-28T09:48:12.295Z,21.89
2017-08-28T09:50:40.719Z,21.83
2017-08-28T09:53:09.168Z,21.58
2017-08-28T09:55:37.609Z,21.55
2017-08-28T09:58:06.080Z,21.73
2017-08-28T10:00:34.537Z,21.51
2017-08-28T10:03:02.999Z,21.55
2017-08-28T10:05:31.480Z,21.61
2017-08-28T10:07:59.967Z,21.34
2017-08-28T10:10:28.452Z,21.40
2017-08-28T10:12:56.946Z,21.66
2017-08-28T10:15:25.425Z,21.63
2017-08-28T10:17:53.910Z,21.84
2017-08-28T10:20:22.375Z,22.09
2017-08-28T10:22:50.874Z,22.23
2017-08-28T10:25:19.337Z,22.51
2017-08-28T10:27:47.773Z,22.64
2017-08-28T10:30:16.309Z,22.83
2017-08-28T10:32:44.746Z,22.95
2017-08-28T10:35:13.280Z,23.05
2017-08-28T10:37:41.756Z,23.21
2017-08-28T10:40:10.233Z,23.11
2017-08-28T10:42:38.729Z,23.21
2017-08-28T10:45:07.190Z,23.08
2017-08-28T10:47:35.685Z,23.31
2017-08-28T10:50:04.260Z,23.27
2017-08-28T10:52:32.689Z,23.36
2017-08-28T10:55:01.133Z,23.35
2017-08-28T10:57:29.613Z,23.25
2017-08-28T10:59:58.053Z,23.01
2017-08-28T11:02:26.581Z,22.78
2017-08-28T11:04:55.050Z,22.50
2017-08-28T11:07:23.511Z,22.36
2017-08-28T11:09:52.029Z,22.09
2017-08-28T11:12:20.505Z,22.04
2017-08-28T11:14:48.927Z,21.82
2017-08-28T11:17:17.464Z,21.85
2017-08-28T11:19:45.958Z,21.70
2017-08-28T11:22:14.425Z,21.80
2017-08-28T11:24:42.912Z,22.17
2017-08-28T11:27:11.405Z,22.33
2017-08-28T11:29:39.835Z,21.98
2017-08-28T11:32:08.365Z,21.81
2017-08-28T11:34:36.805Z,21.78
2017-08-28T11:37:05.321Z,21.73
2017-08-28T11:39:33.815Z,21.63
2017-08-28T11:42:02.301Z,21.58
2017-08-28T11:44:30.778Z,21.55
2017-08-28T11:46:59.224Z,21.45
2017-08-28T11:49:27.742Z,21.45
2017-08-28T11:51:56.332Z,21.44
2017-08-28T11:54:24.795Z,21.49
2017-08-28T11:56:53.291Z,21.45
2017-08-28T11:59:21.731Z,21.84
2017-08-28T12:01:50.160Z,21.99
2017-08-28T12:04:18.634Z,22.27
2017-08-28T12:06:47.103Z,22.34
2017-08-28T12:09:15.601Z,22.55
2017-08-28T12:11:44.063Z,22.56
2017-08-28T12:14:12.543Z,22.68
2017-08-28T12:16:40.973Z,22.33
2017-08-28T12:19:09.529Z,22.14
2017-08-28T12:21:37.996Z,22.02
2017-08-28T12:24:06.440Z,21.96
2017-08-28T12:26:35.082Z,21.86
2017-08-28T12:29:03.541Z,21.98
2017-08-28T12:31:32.029Z,21.95
2017-08-28T12:34:00.512Z,22.10
2017-08-28T12:36:28.993Z,22.02
2017-08-28T12:38:57.482Z,21.81
2017-08-28T12:41:25.912Z,21.86
2017-08-28T12:43:54.446Z,21.77
2017-08-28T12:46:22.933Z,21.73
2017-08-28T12:48:51.399Z,21.75
2017-08-28T12:51:19.889Z,21.85
2017-08-28T12:53:48.355Z,21.92
2017-08-28T12:56:16.853Z,22.00
2017-08-28T12:58:45.323Z,22.15
2017-08-28T13:01:13.772Z,22.22
2017-08-28T13:03:42.203Z,22.44
2017-08-28T13:06:10.673Z,22.52
2017-08-28T13:08:39.168Z,22.82
2017-08-28T13:11:07.633Z,22.90
2017-08-28T13:13:36.131Z,22.88
2017-08-28T13:16:04.604Z,23.08
2017-08-28T13:18:33.032Z,23.01
2017-08-28T13:21:01.554Z,23.09
2017-08-28T13:23:30.034Z,23.01
2017-08-28T13:25:58.528Z,22.82
2017-08-28T13:28:26.999Z,23.16
2017-08-28T13:30:55.498Z,23.28
2017-08-28T13:33:23.977Z,23.37
2017-08-28T13:35:52.424Z,23.46
2017-08-28T13:38:20.931Z,23.61
2017-08-28T13:40:49.370Z,23.54
2017-08-28T13:43:17.809Z,23.59
2017-08-28T13:45:46.285Z,23.73
2017-08-28T13:48:14.707Z,23.83
2017-08-28T13:50:43.185Z,23.70
2017-08-28T13:53:11.612Z,23.76
2017-08-28T13:55:40.035Z,23.85
2017-08-28T13:58:08.587Z,23.46
2017-08-28T14:00:37.079Z,23.34
2017-08-28T14:03:05.552Z,23.19
2017-08-28T14:05:34.037Z,23.43
2017-08-28T14:08:03.393Z,23.70
2017-08-28T14:10:31.933Z,23.83
2017-08-28T14:13:00.393Z,23.93
2017-08-28T14:15:28.882Z,23.76
2017-08-28T14:17:57.360Z,23.91
2017-08-28T14:20:25.853Z,23.60
2017-08-28T14:22:54.337Z,23.95
2017-08-28T14:25:22.817Z,23.73
2017-08-28T14:27:51.265Z,23.96
2017-08-28T14:30:20.470Z,23.79
2017-08-28T14:32:48.963Z,23.47
2017-08-28T14:35:17.447Z,23.50
2017-08-28T14:37:45.927Z,23.32
2017-08-28T14:40:14.347Z,23.31
2017-08-28T14:42:42.834Z,23.31
2017-08-28T14:45:11.297Z,23.31
2017-08-28T14:47:39.759Z,23.31
2017-08-28T14:50:08.209Z,23.19
2017-08-28T14:52:36.651Z,23.14
2017-08-28T14:55:05.104Z,23.10
2017-08-28T14:57:33.538Z,23.14
2017-08-28T15:00:02.003Z,23.01
2017-08-28T15:02:30.448Z,23.01
2017-08-28T15:04:58.891Z,23.00
2017-08-28T15:07:27.333Z,23.03
2017-08-28T15:09:55.891Z,23.05
2017-08-28T15:12:24.372Z,23.02
2017-08-28T15:14:52.865Z,22.91
2017-08-28T15:17:21.302Z,22.83
2017-08-28T15:19:49.824Z,22.88
2017-08-28T15:22:18.314Z,23.18
2017-08-28T15:24:46.792Z,23.29
2017-08-28T15:27:15.277Z,23.32
2017-08-28T15:29:43.747Z,23.49
2017-08-28T15:32:12.222Z,23.61
2017-08-28T15:34:40.711Z,23.58
2017-08-28T15:37:09.205Z,23.82
2017-08-28T15:39:37.639Z,23.86
2017-08-28T15:42:06.175Z,23.97
2017-08-28T15:44:34.595Z,24.10
2017-08-28T15:47:03.123Z,24.22
2017-08-28T15:49:31.609Z,24.26
2017-08-28T15:52:00.065Z,24.32
2017-08-28T15:54:28.573Z,24.50
2017-08-28T15:56:57.062Z,24.29
2017-08-28T15:59:25.491Z,24.27
2017-08-28T16:01:53.947Z,24.22
2017-08-28T16:04:22.380Z,24.20
2017-08-28T16:06:50.875Z,24.24
2017-08-28T16:09:19.350Z,24.13
2017-08-28T16:11:47.797Z,24.10
2017-08-28T16:14:16.333Z,24.04
2017-08-28T16:16:44.819Z,23.98
2017-08-28T16:19:13.289Z,23.99
2017-08-28T16:21:41.743Z,23.81
2017-08-28T16:24:10.266Z,23.71
2017-08-28T16:26:38.722Z,23.54
2017-08-28T16:29:07.217Z,23.45
2017-08-28T16:31:35.684Z,23.27
2017-08-28T16:34:04.180Z,23.27
2017-08-28T16:36:32.625Z,23.33
2017-08-28T16:39:01.071Z,23.27
2017-08-28T16:41:29.512Z,23.34
2017-08-28T16:43:58.000Z,23.58
2017-08-28T16:46:26.489Z,23.82
2017-08-28T16:48:54.968Z,23.97
2017-08-28T16:51:23.450Z,24.14
2017-08-28T16:53:51.896Z,24.03
2017-08-28T16:56:21.097Z,24.38
2017-08-28T16:58:49.617Z,24.51
2017-08-28T17:01:18.091Z,24.83
2017-08-28T17:03:46.575Z,24.81
2017-08-28T17:06:14.994Z,24.85
2017-08-28T17:08:43.545Z,24.78
2017-08-28T17:11:11.981Z,24.45
2017-08-28T17:13:40.516Z,24.51
2017-08-28T17:16:08.994Z,24.52
2017-08-28T17:18:37.568Z,24.33
2017-08-28T17:21:06.052Z,24.12
2017-08-28T17:26:27.949Z,23.45
2017-08-28T17:28:56.395Z,23.14
2017-08-28T17:31:24.828Z,22.98
2017-08-28T17:33:53.344Z,22.82
2017-08-28T17:36:21.773Z,22.71
2017-08-28T17:38:50.322Z,22.42
2017-08-28T17:41:18.792Z,22.36
2017-08-28T17:43:47.221Z,22.19
2017-08-28T17:46:15.752Z,22.07
2017-08-28T17:48:44.193Z,21.97
2017-08-28T17:51:12.657Z,21.81
2017-08-28T17:53:41.086Z,21.62
2017-08-28T17:56:09.585Z,21.57
2017-08-28T17:58:38.029Z,21.42
2017-08-28T18:01:06.556Z,21.27
2017-08-28T18:03:35.031Z,21.13
2017-08-28T18:06:03.504Z,21.10
2017-08-28T18:08:32.006Z,21.03
2017-08-28T18:11:00.461Z,20.94
2017-08-28T18:13:28.924Z,20.70
2017-08-28T18:15:58.148Z,20.40
2017-08-28T18:18:26.595Z,20.33
2017-08-28T18:20:55.043Z,20.18
2017-08-28T18:23:23.465Z,20.09
2017-08-28T18:25:51.913Z,19.96
2017-08-28T18:28:20.367Z,19.86
2017-08-28T18:30:48.846Z,19.75
2017-08-28T18:33:17.319Z,19.78
2017-08-28T18:35:45.793Z,19.66
2017-08-28T18:38:14.235Z,19.52
2017-08-28T18:40:42.664Z,19.47
2017-08-28T18:43:11.144Z,19.42
2017-08-28T18:45:39.628Z,19.37
2017-08-28T18:48:08.119Z,19.21
2017-08-28T18:50:36.558Z,19.14
2017-08-28T18:53:05.003Z,19.01
2017-08-28T18:55:33.463Z,18.93
2017-08-28T18:58:01.932Z,18.90
2017-08-28T19:00:30.426Z,18.81
2017-08-28T19:02:58.869Z,18.76
2017-08-28T19:05:27.389Z,18.70
2017-08-28T19:07:55.912Z,18.59
2017-08-28T19:10:24.353Z,18.52
2017-08-28T19:12:52.818Z,18.46
2017-08-28T19:15:21.260Z,18.43
2017-08-28T19:17:49.717Z,18.39
2017-08-28T19:20:18.158Z,18.32
2017-08-28T19:22:46.659Z,18.33
2017-08-28T19:25:15.141Z,18.29
2017-08-28T19:27:43.617Z,18.24
2017-08-28T19:30:12.053Z,18.16
2017-08-28T19:32:40.586Z,18.04
2017-08-28T19:35:09.055Z,17.99
2017-08-28T19:37:37.508Z,17.95
2017-08-28T19:40:06.044Z,17.84
2017-08-28T19:42:34.523Z,17.82
2017-08-28T19:45:02.979Z,17.72
2017-08-28T19:47:31.467Z,17.67
2017-08-28T19:49:59.954Z,17.68
2017-08-28T19:52:28.380Z,17.61
2017-08-28T19:54:56.846Z,17.47
2017-08-28T19:57:25.303Z,17.44
2017-08-28T19:59:53.774Z,17.43
2017-08-28T20:02:27.736Z,17.36
2017-08-28T20:04:56.193Z,17.37
2017-08-28T20:07:24.658Z,17.29
2017-08-28T20:09:53.142Z,17.26
2017-08-28T20:12:21.607Z,17.27
2017-08-28T20:14:50.069Z,17.28
2017-08-28T20:17:18.587Z,17.24
2017-08-28T20:19:47.045Z,17.22
2017-08-28T20:22:15.555Z,17.18
2017-08-28T20:24:44.020Z,17.13
2017-08-28T20:27:12.504Z,17.09
2017-08-28T20:29:40.979Z,17.03
2017-08-28T20:32:09.459Z,16.98
2017-08-28T20:34:37.913Z,16.95
2017-08-28T20:37:06.442Z,16.91
2017-08-28T20:39:34.912Z,16.89
2017-08-28T20:42:03.391Z,16.84
2017-08-28T20:44:31.839Z,16.83
2017-08-28T20:47:01.036Z,16.72
2017-08-28T20:49:29.571Z,16.72
2017-08-28T20:51:58.053Z,16.69
2017-08-28T20:54:26.519Z,16.69
2017-08-28T20:56:55.009Z,16.59
2017-08-28T20:59:23.451Z,16.58
2017-08-28T21:01:51.973Z,16.57
2017-08-28T21:04:20.448Z,16.53
2017-08-28T21:06:48.901Z,16.46
2017-08-28T21:09:17.341Z,16.40
2017-08-28T21:11:45.794Z,16.33
2017-08-28T21:14:14.221Z,16.30
2017-08-28T21:16:42.751Z,16.27
2017-08-28T21:19:11.261Z,16.22
2017-08-28T21:21:39.708Z,16.14
2017-08-28T21:24:08.216Z,16.19
2017-08-28T21:26:36.684Z,16.23
2017-08-28T21:29:05.111Z,16.25
2017-08-28T21:31:33.570Z,16.20
2017-08-28T21:34:02.033Z,16.19
2017-08-28T21:36:30.518Z,16.08
2017-08-28T21:38:58.955Z,16.11
2017-08-28T21:41:27.418Z,16.14
2017-08-28T21:43:55.853Z,16.08
2017-08-28T21:46:24.340Z,15.98
2017-08-28T21:48:52.821Z,15.90
2017-08-28T21:51:21.313Z,15.91
2017-08-28T21:53:49.789Z,16.03
2017-08-28T21:56:18.368Z,15.96
2017-08-28T21:58:46.808Z,15.97
2017-08-28T22:01:15.330Z,15.84
2017-08-28T22:03:43.819Z,15.87
2017-08-28T22:06:12.296Z,15.85
2017-08-28T22:08:40.789Z,15.82
2017-08-28T22:11:09.261Z,15.71
2017-08-28T22:13:37.752Z,15.58
2017-08-28T22:16:06.224Z,15.61
2017-08-28T22:18:34.700Z,15.54
2017-08-28T22:21:03.195Z,15.48
2017-08-28T22:23:31.664Z,15.47
2017-08-28T22:26:00.161Z,15.42
2017-08-28T22:28:28.617Z,15.37
2017-08-28T22:30:57.052Z,15.42
2017-08-28T22:33:25.583Z,15.34
2017-08-28T22:35:54.012Z,15.38
2017-08-28T22:38:22.461Z,15.39
2017-08-28T22:40:50.950Z,15.41
2017-08-28T22:43:19.409Z,15.33
2017-08-28T22:45:47.904Z,15.29
2017-08-28T22:48:16.344Z,15.22
2017-08-28T22:50:44.859Z,15.26
2017-08-28T22:53:13.344Z,15.12
2017-08-28T22:55:41.837Z,15.04
2017-08-28T22:58:10.288Z,15.06
2017-08-28T23:00:38.744Z,15.01
2017-08-28T23:03:07.163Z,14.98
2017-08-28T23:05:35.651Z,14.90
2017-08-28T23:08:04.131Z,14.88
2017-08-28T23:10:32.615Z,14.93
2017-08-28T23:13:01.092Z,15.01
2017-08-28T23:15:29.587Z,15.00
2017-08-28T23:17:58.059Z,14.94
2017-08-28T23:20:26.545Z,14.91
2017-08-28T23:22:54.984Z,14.88
2017-08-28T23:25:23.440Z,14.89
2017-08-28T23:27:51.874Z,14.82
2017-08-28T23:30:20.319Z,14.82
2017-08-28T23:32:48.747Z,14.79
2017-08-28T23:35:17.246Z,14.68
2017-08-28T23:37:45.672Z,14.72
2017-08-28T23:40:14.132Z,14.69
2017-08-28T23:42:42.580Z,14.69
2017-08-28T23:45:11.013Z,14.70
2017-08-28T23:47:39.529Z,14.69
2017-08-28T23:50:08.020Z,14.61
2017-08-28T23:52:36.477Z,14.57
2017-08-28T23:55:04.997Z,14.58
2017-08-28T23:57:33.468Z,14.60
